Time;durP1;ratioP1;P1;durP2;ratioP2;P2;SDS_P1;SDS_P2;PMS_P1;PMS_P2;Temp;Humidity;BMP_temperature;BMP_pressure;BME280_temperature;BME280_humidity;BME280_pressure;Samples;Min_cycle;Max_cycle;Signal;HPM_P1;HPM_P2
2022/09/13 00:00:56;;;;;;;17.65;15.10;;;18.60;99.90;;;;;;5016152;28;20068;-60
2022/09/13 00:03:22;;;;;;;20.08;16.13;;;18.50;99.90;;;;;;5015168;28;20052;-60
2022/09/13 00:05:48;;;;;;;21.23;16.60;;;18.60;99.90;;;;;;5003096;28;20034;-60
2022/09/13 00:08:15;;;;;;;20.02;16.67;;;18.60;99.90;;;;;;4985844;28;20038;-60
2022/09/13 00:10:42;;;;;;;21.58;16.80;;;18.60;99.90;;;;;;5009889;28;20045;-60
2022/09/13 00:13:09;;;;;;;18.90;15.35;;;18.60;99.90;;;;;;5006918;28;20042;-60
2022/09/13 00:15:36;;;;;;;21.00;15.63;;;18.50;99.90;;;;;;5013958;28;20056;-60
2022/09/13 00:18:01;;;;;;;19.55;16.67;;;18.60;99.90;;;;;;5015784;28;20042;-60
2022/09/13 00:20:27;;;;;;;19.90;16.38;;;18.60;99.90;;;;;;5015425;28;20044;-60
2022/09/13 00:22:53;;;;;;;17.73;15.82;;;18.70;99.90;;;;;;5015092;28;20034;-61
2022/09/13 00:25:19;;;;;;;21.25;16.92;;;18.70;99.90;;;;;;5001932;28;20133;-62
2022/09/13 00:27:45;;;;;;;19.38;15.93;;;18.70;99.90;;;;;;5014537;28;20034;-60
2022/09/13 00:30:12;;;;;;;18.55;16.15;;;18.70;99.90;;;;;;5014793;28;20038;-60
2022/09/13 00:32:38;;;;;;;21.15;16.75;;;18.70;99.90;;;;;;5015238;28;20078;-60
2022/09/13 00:35:05;;;;;;;18.48;14.82;;;18.70;99.90;;;;;;5015214;28;20081;-60
2022/09/13 00:37:32;;;;;;;20.90;15.75;;;18.70;99.90;;;;;;5003191;28;20042;-61
2022/09/13 00:39:58;;;;;;;19.15;16.10;;;18.70;99.90;;;;;;5012999;28;20038;-60
2022/09/13 00:42:26;;;;;;;16.50;14.70;;;18.60;99.90;;;;;;5004713;28;20128;-60
2022/09/13 00:44:57;;;;;;;21.17;16.05;;;18.70;99.90;;;;;;5025183;28;20037;-61
2022/09/13 00:47:52;;;;;;;17.40;14.82;;;18.70;99.90;;;;;;4988196;28;20050;-61
2022/09/13 00:50:33;;;;;;;17.98;15.57;;;18.70;99.90;;;;;;5011520;28;20046;-60
2022/09/13 00:53:10;;;;;;;17.42;15.63;;;18.70;99.90;;;;;;5014445;28;20076;-60
2022/09/13 00:55:49;;;;;;;17.25;15.50;;;18.70;99.90;;;;;;5000865;28;20482;-60
2022/09/13 00:58:21;;;;;;;17.95;15.07;;;18.70;99.90;;;;;;4999787;28;20320;-60
2022/09/13 01:00:48;;;;;;;18.23;14.50;;;18.80;99.90;;;;;;5009563;28;20112;-60
2022/09/13 01:03:16;;;;;;;16.95;14.27;;;18.70;99.90;;;;;;5020308;28;20176;-60
2022/09/13 01:05:47;;;;;;;17.50;14.35;;;18.70;99.90;;;;;;5013525;28;20439;-60
2022/09/13 01:08:21;;;;;;;16.85;14.07;;;18.70;99.90;;;;;;5013235;28;20053;-60
2022/09/13 01:10:52;;;;;;;15.77;13.80;;;18.70;99.90;;;;;;4991054;28;20144;-60
2022/09/13 01:13:25;;;;;;;17.52;13.90;;;18.70;99.90;;;;;;4977286;28;20399;-60
2022/09/13 01:15:51;;;;;;;16.15;13.90;;;18.70;99.90;;;;;;4994499;28;20046;-61
2022/09/13 01:18:18;;;;;;;18.75;13.57;;;18.60;99.90;;;;;;4988156;28;20466;-60
2022/09/13 01:20:55;;;;;;;21.15;13.75;;;18.60;99.90;;;;;;5013570;28;20407;-60
2022/09/13 01:23:35;;;;;;;19.10;13.48;;;18.60;99.90;;;;;;5002091;28;20053;-61
2022/09/13 01:26:19;;;;;;;21.73;13.50;;;18.60;99.90;;;;;;5010575;28;20045;-61
2022/09/13 01:29:00;;;;;;;17.70;12.80;;;18.60;99.90;;;;;;4995984;28;20140;-60
2022/09/13 01:31:43;;;;;;;17.23;13.23;;;18.60;99.90;;;;;;4996059;28;20034;-61
2022/09/13 01:34:17;;;;;;;19.23;13.25;;;18.60;99.90;;;;;;5006071;28;20120;-60
2022/09/13 01:36:52;;;;;;;17.50;12.90;;;18.60;99.90;;;;;;4990369;28;20133;-60
2022/09/13 01:39:41;;;;;;;17.52;12.27;;;18.70;99.90;;;;;;5013706;28;20045;-61
2022/09/13 01:42:21;;;;;;;15.95;13.18;;;18.60;99.90;;;;;;5013326;28;20375;-61
2022/09/13 01:45:12;;;;;;;17.80;13.55;;;18.70;99.90;;;;;;5013018;28;20041;-61
2022/09/13 01:47:52;;;;;;;17.10;13.93;;;18.60;99.90;;;;;;5013135;28;20046;-60
2022/09/13 01:50:36;;;;;;;16.52;13.50;;;18.60;99.90;;;;;;5013483;28;20144;-61
2022/09/13 01:53:24;;;;;;;14.07;12.48;;;18.60;99.90;;;;;;5013008;28;20041;-61
2022/09/13 01:56:21;;;;;;;15.68;12.32;;;18.60;99.90;;;;;;4999600;28;20415;-62
2022/09/13 01:59:18;;;;;;;13.40;11.77;;;18.60;99.90;;;;;;5008202;28;20199;-60
2022/09/13 02:01:59;;;;;;;17.63;12.20;;;18.60;99.90;;;;;;4993675;28;20065;-61
2022/09/13 02:04:31;;;;;;;15.32;12.18;;;18.60;99.90;;;;;;4993512;28;20042;-61
2022/09/13 02:07:08;;;;;;;14.82;11.27;;;18.60;99.90;;;;;;5007188;28;20050;-61
2022/09/13 02:09:38;;;;;;;15.95;12.32;;;18.60;99.90;;;;;;5003521;28;20085;-61
2022/09/13 02:12:18;;;;;;;14.02;12.07;;;18.60;99.90;;;;;;4989503;28;20468;-61
2022/09/13 02:14:49;;;;;;;14.10;12.63;;;18.60;99.90;;;;;;4993061;28;20053;-61
2022/09/13 02:17:21;;;;;;;14.15;12.65;;;18.60;99.90;;;;;;4996800;28;20050;-60
2022/09/13 02:20:28;;;;;;;14.45;12.48;;;18.50;99.90;;;;;;5014252;28;20034;-60
2022/09/13 02:22:57;;;;;;;14.65;13.02;;;18.60;99.90;;;;;;5015956;28;20443;-61
2022/09/13 02:25:26;;;;;;;14.07;12.55;;;18.50;99.90;;;;;;5004042;28;20100;-59
2022/09/13 02:27:57;;;;;;;14.60;12.82;;;18.50;99.90;;;;;;5011145;28;20042;-62
2022/09/13 02:30:24;;;;;;;14.50;12.15;;;18.40;99.90;;;;;;4997483;28;20050;-61
2022/09/13 02:33:06;;;;;;;15.43;12.82;;;18.50;99.90;;;;;;4996477;28;20035;-60
2022/09/13 02:35:42;;;;;;;14.48;12.68;;;18.50;99.90;;;;;;5003914;28;20045;-60
2022/09/13 02:38:25;;;;;;;15.40;13.20;;;18.50;99.90;;;;;;5014116;28;20033;-60
2022/09/13 02:40:57;;;;;;;15.48;12.13;;;18.40;99.90;;;;;;5017083;28;20116;-60
2022/09/13 02:43:30;;;;;;;14.38;12.23;;;18.50;99.90;;;;;;5016541;28;20052;-60
2022/09/13 02:46:11;;;;;;;13.77;11.70;;;18.50;99.90;;;;;;5006108;28;20046;-60
2022/09/13 02:48:57;;;;;;;12.65;10.82;;;18.50;99.90;;;;;;5016138;28;20038;-60
2022/09/13 02:51:35;;;;;;;12.85;11.55;;;18.50;99.90;;;;;;5002630;28;20048;-60
2022/09/13 02:54:19;;;;;;;15.30;11.88;;;18.60;99.90;;;;;;5016622;28;20117;-60
2022/09/13 02:57:00;;;;;;;14.82;12.48;;;18.60;99.90;;;;;;5013456;28;20153;-61
2022/09/13 02:59:26;;;;;;;14.30;12.90;;;18.60;99.90;;;;;;5007102;28;20034;-60
2022/09/13 03:02:12;;;;;;;14.98;13.10;;;18.50;99.90;;;;;;5016083;28;20045;-61
2022/09/13 03:04:38;;;;;;;15.85;12.93;;;18.60;99.90;;;;;;5016053;28;20128;-60
2022/09/13 03:07:09;;;;;;;14.73;12.48;;;18.60;99.90;;;;;;5013637;28;20133;-60
2022/09/13 03:09:35;;;;;;;16.38;13.45;;;18.60;99.90;;;;;;5006248;28;20125;-61
2022/09/13 03:12:04;;;;;;;17.00;13.50;;;18.60;99.90;;;;;;5010474;28;20507;-61
2022/09/13 03:14:55;;;;;;;15.40;12.90;;;18.50;99.90;;;;;;4996361;28;20141;-60
2022/09/13 03:17:59;;;;;;;17.85;13.40;;;18.60;99.90;;;;;;4992300;28;20061;-61
2022/09/13 03:20:48;;;;;;;15.68;13.73;;;18.50;99.90;;;;;;5010278;28;20056;-61
2022/09/13 03:23:51;;;;;;;15.40;13.57;;;18.50;99.90;;;;;;4995810;28;20567;-60
2022/09/13 03:26:21;;;;;;;15.07;13.10;;;18.50;99.90;;;;;;5001005;28;20056;-60
2022/09/13 03:29:00;;;;;;;17.30;13.25;;;18.50;99.90;;;;;;5013653;28;20050;-60
2022/09/13 03:31:30;;;;;;;14.88;13.10;;;18.50;99.90;;;;;;5001321;28;20084;-60
2022/09/13 03:34:02;;;;;;;14.95;13.40;;;18.50;99.90;;;;;;5015885;28;20050;-60
2022/09/13 03:36:40;;;;;;;16.02;13.57;;;18.60;99.90;;;;;;5002063;28;20042;-60
2022/09/13 03:39:13;;;;;;;15.15;12.82;;;18.60;99.90;;;;;;5015202;28;20498;-60
2022/09/13 03:41:43;;;;;;;15.05;13.10;;;18.50;99.90;;;;;;5012187;28;20033;-60
2022/09/13 03:44:12;;;;;;;13.85;11.68;;;18.50;99.90;;;;;;5015063;28;20419;-60
2022/09/13 03:46:45;;;;;;;15.00;12.52;;;18.60;99.90;;;;;;4989425;28;20049;-61
2022/09/13 03:49:14;;;;;;;16.77;12.82;;;18.50;99.90;;;;;;5005851;28;20049;-62
2022/09/13 03:51:42;;;;;;;16.25;13.80;;;18.50;99.90;;;;;;4998363;28;20113;-60
2022/09/13 03:54:15;;;;;;;15.38;12.15;;;18.60;99.90;;;;;;5015353;28;20029;-61
2022/09/13 03:56:41;;;;;;;15.85;13.55;;;18.60;99.90;;;;;;4994269;28;20045;-61
2022/09/13 03:59:07;;;;;;;15.50;12.57;;;18.50;99.90;;;;;;5015303;28;20037;-60
2022/09/13 04:01:32;;;;;;;14.77;12.85;;;18.60;99.90;;;;;;5001296;28;20108;-60
2022/09/13 04:03:58;;;;;;;14.77;11.82;;;18.60;99.90;;;;;;4995096;28;20039;-60
2022/09/13 04:06:24;;;;;;;14.13;12.25;;;18.60;99.90;;;;;;4978756;28;20049;-60
2022/09/13 04:08:50;;;;;;;13.57;10.40;;;18.50;99.90;;;;;;4999263;28;20049;-61
2022/09/13 04:11:16;;;;;;;15.05;9.82;;;18.60;99.90;;;;;;5005419;28;20407;-60
2022/09/13 04:13:41;;;;;;;11.63;8.82;;;18.60;99.90;;;;;;5010735;28;20042;-60
2022/09/13 04:16:07;;;;;;;11.90;9.45;;;18.60;99.90;;;;;;4990581;28;20038;-60
2022/09/13 04:18:33;;;;;;;11.02;7.95;;;18.60;99.90;;;;;;5009545;28;20038;-60
2022/09/13 04:21:00;;;;;;;10.70;7.60;;;18.60;99.90;;;;;;4998217;28;20795;-60
2022/09/13 04:23:27;;;;;;;12.07;7.82;;;18.60;99.90;;;;;;5014833;28;20038;-60
2022/09/13 04:25:53;;;;;;;16.58;7.90;;;18.60;99.90;;;;;;5013669;28;20072;-60
2022/09/13 04:28:21;;;;;;;10.05;7.45;;;18.50;99.90;;;;;;5014278;28;20132;-60
2022/09/13 04:30:48;;;;;;;14.32;7.63;;;18.60;99.90;;;;;;5014584;28;20108;-60
2022/09/13 04:33:16;;;;;;;16.27;8.20;;;18.60;99.90;;;;;;5000668;28;20033;-60
2022/09/13 04:35:41;;;;;;;11.57;7.45;;;18.60;99.90;;;;;;5011406;28;20061;-60
2022/09/13 04:38:07;;;;;;;11.68;7.22;;;18.60;99.90;;;;;;5011842;28;20359;-60
2022/09/13 04:40:34;;;;;;;15.02;8.77;;;18.60;99.90;;;;;;5005877;28;20078;-60
2022/09/13 04:43:00;;;;;;;14.48;7.93;;;18.60;99.90;;;;;;5009327;28;20419;-60
2022/09/13 04:45:27;;;;;;;12.13;7.65;;;18.60;99.90;;;;;;5013992;28;20060;-61
2022/09/13 04:47:54;;;;;;;10.05;7.38;;;18.60;99.90;;;;;;5013801;28;20355;-60
2022/09/13 04:50:20;;;;;;;12.82;7.80;;;18.60;99.90;;;;;;5013583;28;20053;-60
2022/09/13 04:52:46;;;;;;;11.02;7.97;;;18.70;99.90;;;;;;5013380;28;20038;-61
2022/09/13 04:55:13;;;;;;;10.07;7.90;;;18.60;99.90;;;;;;5012327;28;20120;-63
2022/09/13 04:57:39;;;;;;;12.02;8.10;;;18.60;99.90;;;;;;5013094;28;20407;-61
2022/09/13 05:00:06;;;;;;;15.70;9.00;;;18.70;99.90;;;;;;5014165;28;20050;-61
2022/09/13 05:02:32;;;;;;;12.98;8.23;;;18.60;99.90;;;;;;5007940;28;20046;-61
2022/09/13 05:04:57;;;;;;;12.30;8.18;;;18.70;99.90;;;;;;5006994;28;20045;-61
2022/09/13 05:07:23;;;;;;;10.10;7.78;;;18.70;99.90;;;;;;4996648;28;20525;-60
2022/09/13 05:09:48;;;;;;;11.32;8.70;;;18.60;99.90;;;;;;5005450;28;20080;-61
2022/09/13 05:12:14;;;;;;;13.48;7.07;;;18.60;99.90;;;;;;5010684;28;20041;-61
2022/09/13 05:14:40;;;;;;;11.13;7.18;;;18.60;99.90;;;;;;5013399;28;20065;-61
2022/09/13 05:17:06;;;;;;;11.52;7.43;;;18.60;99.90;;;;;;5015401;28;20129;-59
2022/09/13 05:19:32;;;;;;;11.15;6.72;;;18.60;99.90;;;;;;5013635;28;20034;-62
2022/09/13 05:21:57;;;;;;;9.38;7.15;;;18.50;99.90;;;;;;4994629;28;20084;-60
2022/09/13 05:24:23;;;;;;;10.05;7.53;;;18.50;99.90;;;;;;5012038;28;20041;-61
2022/09/13 05:26:48;;;;;;;9.00;6.45;;;18.50;99.90;;;;;;4988824;28;20053;-60
2022/09/13 05:29:14;;;;;;;9.73;7.03;;;18.60;99.90;;;;;;4990337;28;20085;-60
2022/09/13 05:31:41;;;;;;;10.77;6.40;;;18.50;99.90;;;;;;5000321;28;20068;-62
2022/09/13 05:34:13;;;;;;;11.90;6.43;;;18.50;99.90;;;;;;4996314;28;20049;-60
2022/09/13 05:36:40;;;;;;;7.53;5.53;;;18.50;99.90;;;;;;5013540;28;20045;-61
2022/09/13 05:39:10;;;;;;;8.77;5.50;;;18.30;99.90;;;;;;5013771;28;20046;-61
2022/09/13 05:41:36;;;;;;;10.00;5.28;;;18.50;99.90;;;;;;4999852;28;20045;-60
2022/09/13 05:44:02;;;;;;;8.52;5.50;;;18.40;99.90;;;;;;5013458;28;20048;-62
2022/09/13 05:46:28;;;;;;;10.05;5.40;;;18.40;99.90;;;;;;5013545;28;20096;-61
2022/09/13 05:48:58;;;;;;;8.48;4.75;;;18.50;99.90;;;;;;5013834;28;20419;-60
2022/09/13 05:51:24;;;;;;;5.95;3.65;;;18.40;99.90;;;;;;4996791;28;20046;-60
2022/09/13 05:53:51;;;;;;;6.28;3.40;;;18.40;99.90;;;;;;4989913;28;20467;-60
2022/09/13 05:56:22;;;;;;;9.90;3.25;;;18.40;99.90;;;;;;5001950;28;20056;-61
2022/09/13 05:58:49;;;;;;;9.25;2.95;;;18.40;99.90;;;;;;5013505;28;20136;-60
2022/09/13 06:01:18;;;;;;;8.75;2.70;;;18.40;99.90;;;;;;5013680;28;20050;-60
2022/09/13 06:03:48;;;;;;;7.45;2.63;;;18.40;99.90;;;;;;4982204;28;20331;-61
2022/09/13 06:06:14;;;;;;;6.78;2.50;;;18.40;99.90;;;;;;5013187;28;20125;-62
2022/09/13 06:08:39;;;;;;;7.10;2.80;;;18.30;99.90;;;;;;5013621;28;20558;-61
2022/09/13 06:11:07;;;;;;;9.15;3.33;;;18.30;99.90;;;;;;4988054;28;20463;-60
2022/09/13 06:13:34;;;;;;;7.40;3.10;;;18.30;99.90;;;;;;5008037;28;20030;-61
2022/09/13 06:16:01;;;;;;;11.02;3.78;;;18.30;99.90;;;;;;5006984;28;20053;-60
2022/09/13 06:18:27;;;;;;;11.73;5.35;;;18.30;99.90;;;;;;4993842;28;20042;-61
2022/09/13 06:21:00;;;;;;;9.48;3.90;;;18.30;99.90;;;;;;4998607;28;20044;-60
2022/09/13 06:23:29;;;;;;;9.93;3.05;;;18.30;99.90;;;;;;5013380;28;20104;-60
2022/09/13 06:26:07;;;;;;;9.15;2.80;;;18.30;99.90;;;;;;4998802;28;20048;-60
2022/09/13 06:28:33;;;;;;;4.97;2.42;;;18.30;99.90;;;;;;5013205;28;20117;-61
2022/09/13 06:31:03;;;;;;;10.32;2.72;;;18.30;99.90;;;;;;4999030;28;20480;-60
2022/09/13 06:33:29;;;;;;;5.03;2.13;;;18.40;99.90;;;;;;4993768;28;20108;-61
2022/09/13 06:35:58;;;;;;;6.65;2.28;;;18.40;99.90;;;;;;4988672;28;20048;-60
2022/09/13 06:38:24;;;;;;;6.13;2.10;;;18.30;99.90;;;;;;5032323;28;20045;-60
2022/09/13 06:41:02;;;;;;;8.48;2.83;;;18.30;99.90;;;;;;5011235;28;20057;-60
2022/09/13 06:43:28;;;;;;;9.65;3.47;;;18.30;99.90;;;;;;4998658;28;20077;-60
2022/09/13 06:46:02;;;;;;;11.55;3.80;;;18.30;99.90;;;;;;5013506;28;20074;-60
2022/09/13 06:48:30;;;;;;;18.80;6.28;;;18.40;99.90;;;;;;4995881;28;20050;-60
2022/09/13 06:51:01;;;;;;;12.90;4.65;;;18.30;99.90;;;;;;5004183;28;20037;-60
2022/09/13 06:53:27;;;;;;;5.13;2.20;;;18.40;99.90;;;;;;5006358;28;20118;-61
2022/09/13 06:56:01;;;;;;;7.30;2.40;;;18.40;99.90;;;;;;4998394;28;20464;-62
2022/09/13 06:58:28;;;;;;;4.40;1.50;;;18.40;99.90;;;;;;5009564;28;20096;-61
2022/09/13 07:01:03;;;;;;;4.93;1.80;;;18.40;99.90;;;;;;5013144;28;20520;-61
2022/09/13 07:03:29;;;;;;;4.18;1.80;;;18.50;99.90;;;;;;5012834;28;20308;-61
2022/09/13 07:05:54;;;;;;;3.90;1.63;;;18.50;99.90;;;;;;5009029;28;20049;-61
2022/09/13 07:08:20;;;;;;;4.72;1.80;;;18.50;99.90;;;;;;5010705;28;20121;-61
2022/09/13 07:10:45;;;;;;;3.75;1.80;;;18.50;99.90;;;;;;5016725;28;20319;-61
2022/09/13 07:13:11;;;;;;;5.88;2.20;;;18.50;99.90;;;;;;5017118;28;20033;-61
2022/09/13 07:15:36;;;;;;;4.18;1.77;;;18.50;99.90;;;;;;5016853;28;20123;-60
2022/09/13 07:18:02;;;;;;;5.70;1.70;;;18.50;99.90;;;;;;5016672;28;20052;-60
2022/09/13 07:20:28;;;;;;;5.60;2.28;;;18.50;99.90;;;;;;5002736;28;20114;-61
2022/09/13 07:22:53;;;;;;;6.15;1.90;;;18.50;99.90;;;;;;5015831;28;20034;-61
2022/09/13 07:25:19;;;;;;;3.88;1.77;;;18.50;99.90;;;;;;5016392;28;20049;-62
2022/09/13 07:27:44;;;;;;;5.72;1.85;;;18.50;99.90;;;;;;4997403;28;20042;-60
2022/09/13 07:30:10;;;;;;;6.80;1.98;;;18.40;99.90;;;;;;5004179;28;20065;-61
2022/09/13 07:32:36;;;;;;;6.03;1.92;;;18.50;99.90;;;;;;4985619;28;20078;-60
2022/09/13 07:35:03;;;;;;;7.30;1.73;;;18.40;99.90;;;;;;4996863;28;20031;-60
2022/09/13 07:37:28;;;;;;;5.90;2.00;;;18.50;99.90;;;;;;5008202;28;20100;-60
2022/09/13 07:39:54;;;;;;;7.03;2.47;;;18.50;99.90;;;;;;5016360;28;20030;-61
2022/09/13 07:42:19;;;;;;;5.10;2.05;;;18.50;99.90;;;;;;5006743;28;20035;-60
2022/09/13 07:44:45;;;;;;;8.85;3.20;;;18.60;99.90;;;;;;4997763;28;20046;-60
2022/09/13 07:47:11;;;;;;;8.38;3.08;;;18.60;99.90;;;;;;5016412;28;20089;-60
2022/09/13 07:49:36;;;;;;;7.78;2.72;;;18.60;99.90;;;;;;5016378;28;20084;-60
2022/09/13 07:52:02;;;;;;;5.45;2.33;;;18.70;99.90;;;;;;5016199;28;20204;-60
2022/09/13 07:54:29;;;;;;;5.90;2.00;;;18.70;99.90;;;;;;4998832;28;20056;-60
2022/09/13 07:56:54;;;;;;;6.65;2.00;;;18.70;99.90;;;;;;5010104;28;20483;-61
2022/09/13 07:59:20;;;;;;;4.15;1.73;;;18.80;99.90;;;;;;5016238;28;20065;-60
2022/09/13 08:01:49;;;;;;;6.68;1.80;;;18.70;99.90;;;;;;4998600;28;20053;-60
2022/09/13 08:04:18;;;;;;;4.57;1.77;;;18.80;99.90;;;;;;5016111;28;20154;-61
2022/09/13 08:06:45;;;;;;;7.88;2.00;;;18.80;99.90;;;;;;5029778;28;20359;-60
2022/09/13 08:09:12;;;;;;;4.43;2.20;;;19.00;99.90;;;;;;5015857;28;20042;-61
2022/09/13 08:11:46;;;;;;;6.50;2.35;;;19.10;99.90;;;;;;5015907;28;20062;-61
2022/09/13 08:14:15;;;;;;;3.55;1.63;;;19.30;99.90;;;;;;5015887;28;20069;-60
2022/09/13 08:16:40;;;;;;;5.32;1.80;;;19.50;99.90;;;;;;5003635;28;20053;-61
2022/09/13 08:19:09;;;;;;;6.00;2.03;;;19.70;99.90;;;;;;5013601;28;20041;-61
2022/09/13 08:21:36;;;;;;;4.85;1.90;;;19.90;99.90;;;;;;5015537;28;20359;-61
2022/09/13 08:24:04;;;;;;;8.23;2.67;;;20.00;99.90;;;;;;5015655;28;20042;-61
2022/09/13 08:26:31;;;;;;;8.88;3.70;;;20.10;99.90;;;;;;5009097;28;20487;-61
2022/09/13 08:28:59;;;;;;;9.15;4.13;;;20.10;99.90;;;;;;4995611;28;20144;-60
2022/09/13 08:31:26;;;;;;;10.27;5.05;;;20.00;99.90;;;;;;5016873;28;20180;-62
2022/09/13 08:33:52;;;;;;;12.07;5.70;;;19.90;99.90;;;;;;5025781;28;20050;-61
2022/09/13 08:36:18;;;;;;;11.45;4.40;;;19.80;99.90;;;;;;5015559;28;20093;-60
2022/09/13 08:38:49;;;;;;;13.20;4.70;;;19.70;99.90;;;;;;5007996;28;20042;-60
2022/09/13 08:41:45;;;;;;;9.85;4.18;;;19.70;99.90;;;;;;4996579;28;20042;-61
2022/09/13 08:44:32;;;;;;;8.85;4.63;;;19.80;99.90;;;;;;5024522;28;20111;-61
2022/09/13 08:47:17;;;;;;;9.57;4.30;;;20.00;99.90;;;;;;5001211;28;20041;-61
2022/09/13 08:49:47;;;;;;;9.77;3.28;;;20.20;99.90;;;;;;5014836;28;20052;-60
2022/09/13 08:52:19;;;;;;;7.93;2.78;;;20.40;99.90;;;;;;5001221;28;20038;-61
2022/09/13 08:54:44;;;;;;;7.28;2.05;;;20.50;99.90;;;;;;5001914;28;20141;-61
2022/09/13 08:57:24;;;;;;;6.22;2.10;;;20.60;99.90;;;;;;5000222;28;20124;-62
2022/09/13 09:00:10;;;;;;;6.03;2.10;;;20.70;99.90;;;;;;5015232;28;20046;-61
2022/09/13 09:02:42;;;;;;;6.15;1.70;;;20.90;99.90;;;;;;5015144;28;20099;-61
2022/09/13 09:05:23;;;;;;;5.55;1.63;;;21.00;99.90;;;;;;4998791;28;20368;-61
2022/09/13 09:08:18;;;;;;;3.80;1.50;;;20.90;99.90;;;;;;5013659;28;20037;-61
2022/09/13 09:10:48;;;;;;;3.63;1.40;;;20.60;99.90;;;;;;5029543;28;20140;-62
2022/09/13 09:13:21;;;;;;;3.33;1.50;;;20.40;99.90;;;;;;5014565;28;20408;-62
2022/09/13 09:15:53;;;;;;;5.18;1.30;;;20.30;99.90;;;;;;5014966;28;20112;-61
2022/09/13 09:18:26;;;;;;;5.57;1.30;;;20.40;99.90;;;;;;5014537;28;20056;-61
2022/09/13 09:20:58;;;;;;;5.32;1.25;;;20.60;99.90;;;;;;5000967;28;20045;-61
2022/09/13 09:23:46;;;;;;;5.97;1.13;;;20.80;99.90;;;;;;5008122;28;20088;-61
2022/09/13 09:26:15;;;;;;;5.68;1.40;;;20.80;99.90;;;;;;5014176;28;20062;-62
2022/09/13 09:28:46;;;;;;;4.10;1.00;;;20.70;99.90;;;;;;5005372;28;20107;-60
2022/09/13 09:31:18;;;;;;;7.25;2.30;;;20.50;99.90;;;;;;5034187;28;20105;-61
2022/09/13 09:33:56;;;;;;;4.57;1.42;;;20.60;99.90;;;;;;5025836;28;20046;-61
2022/09/13 09:36:27;;;;;;;5.65;1.38;;;20.70;99.90;;;;;;5030570;28;20045;-61
2022/09/13 09:38:54;;;;;;;6.65;1.50;;;20.90;99.90;;;;;;4991476;28;20466;-61
2022/09/13 09:41:32;;;;;;;5.15;1.60;;;21.10;99.90;;;;;;5014555;28;20296;-61
2022/09/13 09:44:21;;;;;;;6.80;1.45;;;21.30;99.90;;;;;;4997360;28;20070;-61
2022/09/13 09:46:53;;;;;;;3.92;1.13;;;21.30;99.90;;;;;;5032017;28;20037;-62
2022/09/13 09:52:50;;;;;;;5.70;1.30;;;21.50;99.90;;;;;;5014494;28;20108;-61
2022/09/13 09:55:20;;;;;;;3.50;0.90;;;21.40;99.90;;;;;;5006060;28;20079;-62
2022/09/13 09:58:07;;;;;;;3.92;1.20;;;21.40;99.90;;;;;;5033794;28;20048;-61
2022/09/13 10:00:36;;;;;;;5.88;1.00;;;21.50;99.90;;;;;;5034716;28;20091;-61
2022/09/13 10:03:06;;;;;;;4.45;1.40;;;21.50;99.90;;;;;;5033800;28;20037;-61
2022/09/13 10:05:34;;;;;;;2.95;1.17;;;21.50;99.90;;;;;;5033625;28;20139;-61
2022/09/13 10:08:05;;;;;;;5.28;1.90;;;21.50;99.90;;;;;;5033874;28;20136;-61
2022/09/13 10:10:41;;;;;;;6.80;1.88;;;21.50;99.90;;;;;;5034056;28;20116;-61
2022/09/13 10:13:16;;;;;;;5.80;1.40;;;21.50;99.90;;;;;;5033790;28;20113;-61
2022/09/13 10:15:53;;;;;;;3.83;1.23;;;21.40;99.90;;;;;;5033842;28;20110;-63
2022/09/13 10:18:20;;;;;;;4.40;1.30;;;21.60;99.90;;;;;;5022126;28;20133;-61
2022/09/13 10:21:01;;;;;;;4.90;1.33;;;21.70;99.90;;;;;;5045341;28;20421;-61
2022/09/13 10:23:27;;;;;;;3.70;1.20;;;21.80;99.90;;;;;;5033787;28;20107;-62
2022/09/13 10:25:59;;;;;;;3.78;1.17;;;21.70;99.90;;;;;;5029612;28;20103;-61
2022/09/13 10:28:26;;;;;;;4.45;1.50;;;21.70;99.90;;;;;;5033264;28;20058;-62
2022/09/13 10:30:56;;;;;;;4.13;1.90;;;21.60;99.90;;;;;;5033623;28;20037;-59
2022/09/13 10:33:30;;;;;;;4.15;1.92;;;21.60;99.90;;;;;;5033413;28;20120;-59
2022/09/13 10:35:59;;;;;;;5.55;1.80;;;21.60;99.90;;;;;;5015950;28;20057;-62
2022/09/13 10:38:32;;;;;;;4.93;2.00;;;21.40;99.90;;;;;;5033444;28;20037;-62
2022/09/13 10:41:01;;;;;;;3.57;1.67;;;21.40;99.90;;;;;;5023268;28;20052;-62
2022/09/13 10:43:29;;;;;;;5.20;1.70;;;21.50;99.90;;;;;;5022320;28;20268;-62
2022/09/13 10:45:55;;;;;;;5.30;1.70;;;21.40;99.90;;;;;;5026867;28;20042;-61
2022/09/13 10:48:21;;;;;;;3.95;1.35;;;21.50;99.90;;;;;;5020540;28;20045;-61
2022/09/13 10:51:11;;;;;;;3.30;1.10;;;21.60;99.90;;;;;;5037493;28;20106;-61
2022/09/13 10:53:39;;;;;;;3.33;1.50;;;21.50;99.90;;;;;;5037331;28;20174;-62
2022/09/13 10:56:17;;;;;;;3.90;1.42;;;21.50;99.90;;;;;;5019785;28;20112;-61
2022/09/13 10:58:43;;;;;;;5.05;1.63;;;21.50;99.90;;;;;;5019400;28;20427;-61
2022/09/13 11:01:37;;;;;;;6.18;1.60;;;21.30;99.90;;;;;;5037147;28;20091;-61
2022/09/13 11:04:03;;;;;;;;;;;21.10;99.90;;;;;;5017704;28;20049;-61
2022/09/13 11:06:43;;;;;;;5.78;1.90;;;20.90;99.90;;;;;;5029250;28;19921;-62
2022/09/13 11:09:17;;;;;;;3.85;1.38;;;21.00;99.90;;;;;;5036714;28;20338;-64
2022/09/13 11:12:02;;;;;;;5.60;1.63;;;21.00;99.90;;;;;;5037033;28;20033;-61
2022/09/13 11:15:04;;;;;;;10.38;2.10;;;21.20;99.90;;;;;;5019150;28;20049;-62
2022/09/13 11:17:38;;;;;;;10.40;1.30;;;21.20;99.90;;;;;;5022862;28;20038;-61
2022/09/13 11:20:24;;;;;;;7.68;1.80;;;21.30;99.90;;;;;;5036881;28;20037;-61
2022/09/13 11:22:58;;;;;;;7.65;1.52;;;21.20;99.90;;;;;;5036546;28;20396;-61
2022/09/13 11:26:02;;;;;;;5.43;1.60;;;21.30;99.90;;;;;;5036732;28;20041;-61
2022/09/13 11:28:50;;;;;;;4.72;1.60;;;21.20;99.90;;;;;;5018706;28;20568;-61
2022/09/13 11:31:54;;;;;;;2.92;1.40;;;21.20;99.90;;;;;;5036301;28;20489;-61
2022/09/13 11:34:53;;;;;;;5.25;1.50;;;21.50;99.90;;;;;;5023212;28;20070;-61
2022/09/13 11:37:29;;;;;;;4.35;1.27;;;21.50;99.90;;;;;;5016753;28;20346;-61
2022/09/13 11:40:14;;;;;;;3.08;0.85;;;21.60;99.90;;;;;;5051598;28;20044;-62
2022/09/13 11:42:58;;;;;;;3.85;1.20;;;21.60;99.90;;;;;;5044139;28;20041;-62
2022/09/13 11:45:27;;;;;;;6.65;1.52;;;21.60;99.90;;;;;;5018668;28;20130;-61
2022/09/13 11:48:17;;;;;;;4.45;1.50;;;21.70;99.90;;;;;;5023203;28;20105;-61
2022/09/13 11:51:00;;;;;;;7.57;1.40;;;21.60;99.90;;;;;;5016318;28;20045;-61
2022/09/13 11:53:51;;;;;;;2.72;1.02;;;21.80;99.90;;;;;;5032288;28;20124;-61
2022/09/13 11:56:36;;;;;;;7.00;1.17;;;21.80;99.90;;;;;;5035971;28;20060;-62
2022/09/13 11:59:14;;;;;;;2.33;1.10;;;21.80;99.90;;;;;;5035955;28;20041;-61
2022/09/13 12:01:51;;;;;;;6.30;1.40;;;21.70;99.90;;;;;;5036305;28;20096;-61
2022/09/13 12:04:29;;;;;;;6.13;1.60;;;21.70;99.90;;;;;;5035939;28;20200;-61
2022/09/13 12:07:00;;;;;;;7.10;1.90;;;21.60;99.90;;;;;;5021917;28;20064;-61
2022/09/13 12:09:35;;;;;;;5.47;1.63;;;21.60;99.90;;;;;;5035649;28;20065;-61
2022/09/13 12:12:05;;;;;;;6.22;1.20;;;21.70;99.90;;;;;;5037217;28;20057;-61
2022/09/13 12:14:42;;;;;;;5.40;1.35;;;21.80;99.90;;;;;;5037727;28;20044;-62
2022/09/13 12:17:22;;;;;;;5.50;1.35;;;21.90;99.90;;;;;;5051723;28;20037;-61
2022/09/13 12:19:53;;;;;;;3.75;1.02;;;22.00;99.90;;;;;;5015587;28;20082;-61
2022/09/13 12:22:22;;;;;;;5.25;1.25;;;22.10;99.90;;;;;;5032216;28;20041;-61
2022/09/13 12:24:53;;;;;;;5.47;1.10;;;22.20;99.90;;;;;;5001992;28;20064;-61
2022/09/13 12:27:33;;;;;;;4.78;1.40;;;22.20;99.90;;;;;;5023543;28;20121;-61
2022/09/13 12:30:20;;;;;;;5.07;0.85;;;22.40;99.90;;;;;;5020570;28;20049;-62
2022/09/13 12:32:47;;;;;;;4.15;0.90;;;22.40;99.90;;;;;;5020208;28;20474;-62
2022/09/13 12:35:25;;;;;;;6.10;1.40;;;22.40;99.90;;;;;;5015640;28;20037;-61
2022/09/13 12:37:58;;;;;;;1.60;0.80;;;22.40;99.90;;;;;;4998736;28;20547;-61
2022/09/13 12:40:41;;;;;;;5.15;1.05;;;22.40;99.90;;;;;;5010030;28;20045;-60
2022/09/13 12:43:10;;;;;;;4.20;1.17;;;22.30;99.90;;;;;;5032831;28;20048;-62
2022/09/13 12:45:47;;;;;;;6.20;1.10;;;22.20;99.90;;;;;;5054534;28;20347;-60
2022/09/13 12:48:39;;;;;;;7.22;1.02;;;22.20;99.90;;;;;;5055019;28;20135;-60
2022/09/13 12:51:07;;;;;;;4.43;1.30;;;22.10;99.90;;;;;;5055087;28;20048;-61
2022/09/13 12:53:58;;;;;;;3.10;0.90;;;22.00;99.90;;;;;;5054877;28;20111;-61
2022/09/13 12:56:46;;;;;;;5.57;1.00;;;22.00;99.90;;;;;;5041607;28;20037;-64
2022/09/13 12:59:26;;;;;;;7.78;1.33;;;22.10;99.90;;;;;;5034914;28;20055;-60
2022/09/13 13:01:52;;;;;;;5.35;1.10;;;22.10;99.90;;;;;;5016962;28;20144;-61
2022/09/13 13:04:22;;;;;;;4.45;1.30;;;21.90;99.90;;;;;;5033191;28;20116;-62
2022/09/13 13:06:50;;;;;;;4.75;1.00;;;21.80;99.90;;;;;;5016732;28;20100;-61
2022/09/13 13:09:39;;;;;;;5.15;1.13;;;21.80;99.90;;;;;;5027295;28;20049;-61